createdAt,value
2018-12-19T00:00:47.526Z,100656.28
2018-12-19T00:03:14.924Z,100651.16
2018-12-19T00:05:42.330Z,100642.08
2018-12-19T00:08:09.722Z,100639.78
2018-12-19T00:10:37.110Z,100637.88
2018-12-19T00:13:04.504Z,100624.87
2018-12-19T00:15:32.063Z,100624.48
2018-12-19T00:17:59.437Z,100625.46
2018-12-19T00:20:26.875Z,100617.28
2018-12-19T00:22:54.838Z,100623.56
2018-12-19T00:25:22.286Z,100625.19
2018-12-19T00:27:49.684Z,100620.96
2018-12-19T00:30:17.079Z,100613.23
2018-12-19T00:32:44.462Z,100607.53
2018-12-19T00:35:11.923Z,100599.75
2018-12-19T00:37:39.302Z,100598.29
2018-12-19T00:40:06.734Z,100592.72
2018-12-19T00:42:34.189Z,100600.93
2018-12-19T00:45:01.587Z,100596.42
2018-12-19T00:47:28.970Z,100584.79
2018-12-19T00:49:56.374Z,100588.25
2018-12-19T00:52:23.857Z,100583.98
2018-12-19T00:54:51.271Z,100580.55
2018-12-19T00:57:18.666Z,100578.76
2018-12-19T00:59:46.058Z,100571.26
2018-12-19T01:02:13.543Z,100576.58
2018-12-19T01:04:40.990Z,100571.64
2018-12-19T01:07:08.447Z,100579.93
2018-12-19T01:09:36.020Z,100573.48
2018-12-19T01:12:03.394Z,100566.02
2018-12-19T01:14:30.786Z,100566.37
2018-12-19T01:16:58.274Z,100554.63
2018-12-19T01:19:25.730Z,100551.55
2018-12-19T01:21:53.123Z,100552.41
2018-12-19T01:24:20.994Z,100542.28
2018-12-19T01:26:48.418Z,100544.61
2018-12-19T01:29:15.879Z,100535.83
2018-12-19T01:31:43.259Z,100524.52
2018-12-19T01:34:10.679Z,100519.00
2018-12-19T01:36:38.071Z,100519.89
2018-12-19T01:39:06.363Z,100530.33
2018-12-19T01:41:33.865Z,100530.14
2018-12-19T01:44:01.322Z,100527.42
2018-12-19T01:46:28.714Z,100530.92
2018-12-19T01:48:56.142Z,100533.53
2018-12-19T01:51:23.546Z,100529.72
2018-12-19T01:53:50.946Z,100531.94
2018-12-19T01:56:18.405Z,100523.89
2018-12-19T01:58:45.778Z,100515.25
2018-12-19T02:01:13.216Z,100510.61
2018-12-19T02:03:40.673Z,100519.59
2018-12-19T02:06:08.062Z,100510.38
2018-12-19T02:08:35.438Z,100521.36
2018-12-19T02:11:02.837Z,100512.57
2018-12-19T02:13:30.299Z,100495.99
2018-12-19T02:15:57.750Z,100501.25
2018-12-19T02:18:25.206Z,100498.98
2018-12-19T02:20:52.661Z,100504.43
2018-12-19T02:23:20.129Z,100498.97
2018-12-19T02:25:47.502Z,100480.74
2018-12-19T02:28:15.037Z,100492.17
2018-12-19T02:30:42.490Z,100487.98
2018-12-19T02:33:10.063Z,100483.81
2018-12-19T02:35:37.418Z,100483.77
2018-12-19T02:38:04.872Z,100488.98
2018-12-19T02:40:32.254Z,100478.98
2018-12-19T02:42:59.681Z,100484.36
2018-12-19T02:45:27.133Z,100480.55
2018-12-19T02:47:54.587Z,100476.22
2018-12-19T02:50:22.050Z,100485.08
2018-12-19T02:52:49.503Z,100471.26
2018-12-19T02:55:16.958Z,100466.54
2018-12-19T02:57:44.422Z,100453.76
2018-12-19T03:00:11.866Z,100445.20
2018-12-19T03:02:39.267Z,100445.12
2018-12-19T03:05:06.786Z,100430.70
2018-12-19T03:07:34.175Z,100422.72
2018-12-19T03:10:01.740Z,100422.48
2018-12-19T03:12:29.258Z,100422.98
2018-12-19T03:14:56.716Z,100430.97
2018-12-19T03:17:24.170Z,100429.27
2018-12-19T03:19:51.627Z,100414.58
2018-12-19T03:22:19.095Z,100425.62
2018-12-19T03:24:46.542Z,100425.38
2018-12-19T03:27:13.932Z,100420.52
2018-12-19T03:29:41.318Z,100423.05
2018-12-19T03:32:08.717Z,100409.66
2018-12-19T03:34:36.098Z,100400.34
2018-12-19T03:37:03.494Z,100398.61
2018-12-19T03:39:31.005Z,100384.91
2018-12-19T03:41:58.529Z,100387.11
2018-12-19T03:44:25.943Z,100383.72
2018-12-19T03:46:53.418Z,100370.06
2018-12-19T03:49:21.202Z,100369.72
2018-12-19T03:51:48.683Z,100376.16
2018-12-19T03:54:16.481Z,100371.09
2018-12-19T03:56:44.078Z,100378.08
2018-12-19T03:59:11.538Z,100380.96
2018-12-19T04:01:39.122Z,100373.63
2018-12-19T04:04:06.493Z,100390.44
2018-12-19T04:06:34.026Z,100379.45
2018-12-19T04:09:01.422Z,100378.19
2018-12-19T04:11:28.802Z,100372.47
2018-12-19T04:13:56.299Z,100379.74
2018-12-19T04:16:23.754Z,100392.17
2018-12-19T04:18:51.158Z,100392.84
2018-12-19T04:21:18.566Z,100396.14
2018-12-19T04:23:46.018Z,100395.12
2018-12-19T04:26:13.474Z,100405.69
2018-12-19T04:28:40.939Z,100399.83
2018-12-19T04:31:08.721Z,100401.71
2018-12-19T04:33:36.155Z,100400.83
2018-12-19T04:36:04.147Z,100401.37
2018-12-19T04:38:31.830Z,100399.98
2018-12-19T04:40:59.456Z,100398.50
2018-12-19T04:43:27.018Z,100389.59
2018-12-19T04:45:54.398Z,100398.73
2018-12-19T04:48:21.814Z,100394.58
2018-12-19T04:50:49.194Z,100384.26
2018-12-19T04:53:16.639Z,100397.03
2018-12-19T04:55:44.049Z,100389.82
2018-12-19T04:58:11.467Z,100380.96
2018-12-19T05:00:38.901Z,100381.12
2018-12-19T05:03:06.369Z,100389.25
2018-12-19T05:05:33.822Z,100388.06
2018-12-19T05:08:01.215Z,100382.15
2018-12-19T05:10:28.631Z,100388.91
2018-12-19T05:12:56.082Z,100386.68
2018-12-19T05:15:23.643Z,100392.77
2018-12-19T05:17:51.102Z,100392.93
2018-12-19T05:20:18.563Z,100378.77
2018-12-19T05:22:46.118Z,100391.90
2018-12-19T05:25:14.593Z,100390.32
2018-12-19T05:27:42.063Z,100395.00
2018-12-19T05:30:09.922Z,100397.19
2018-12-19T05:32:37.298Z,100398.75
2018-12-19T05:35:06.199Z,100400.35
2018-12-19T05:37:33.658Z,100395.22
2018-12-19T05:40:01.074Z,100390.78
2018-12-19T05:42:28.535Z,100390.94
2018-12-19T05:44:55.923Z,100392.31
2018-12-19T05:47:23.556Z,100400.99
2018-12-19T05:49:51.219Z,100388.31
2018-12-19T05:52:20.314Z,100383.59
2018-12-19T05:54:47.911Z,100376.55
2018-12-19T05:57:15.491Z,100375.70
2018-12-19T05:59:43.722Z,100369.09
2018-12-19T06:02:11.166Z,100375.69
2018-12-19T06:04:38.618Z,100381.45
2018-12-19T06:07:05.998Z,100386.31
2018-12-19T06:09:33.386Z,100373.88
2018-12-19T06:12:00.762Z,100368.88
2018-12-19T06:14:28.221Z,100373.67
2018-12-19T06:16:55.611Z,100364.97
2018-12-19T06:19:23.042Z,100360.89
2018-12-19T06:21:50.542Z,100361.01
2018-12-19T06:24:17.972Z,100350.91
2018-12-19T06:26:45.418Z,100347.91
2018-12-19T06:29:12.796Z,100347.11
2018-12-19T06:31:40.231Z,100352.25
2018-12-19T06:34:07.698Z,100355.16
2018-12-19T06:36:35.095Z,100348.45
2018-12-19T06:39:02.483Z,100350.91
2018-12-19T06:41:29.950Z,100344.04
2018-12-19T06:43:57.414Z,100341.98
2018-12-19T06:46:24.879Z,100346.44
2018-12-19T06:48:52.379Z,100347.79
2018-12-19T06:51:19.878Z,100352.34
2018-12-19T06:53:47.334Z,100340.34
2018-12-19T06:56:14.907Z,100341.81
2018-12-19T06:58:42.350Z,100335.13
2018-12-19T07:01:09.745Z,100336.94
2018-12-19T07:03:37.162Z,100336.38
2018-12-19T07:06:04.626Z,100341.90
2018-12-19T07:08:32.074Z,100331.45
2018-12-19T07:10:59.539Z,100338.19
2018-12-19T07:13:27.215Z,100337.01
2018-12-19T07:15:54.597Z,100333.64
2018-12-19T07:18:21.990Z,100336.20
2018-12-19T07:20:49.386Z,100338.48
2018-12-19T07:23:16.770Z,100348.87
2018-12-19T07:25:44.154Z,100345.52
2018-12-19T07:28:11.535Z,100354.54
2018-12-19T07:30:38.986Z,100350.84
2018-12-19T07:33:06.444Z,100364.77
2018-12-19T07:35:33.827Z,100367.47
2018-12-19T07:38:01.254Z,100363.34
2018-12-19T07:40:28.654Z,100377.99
2018-12-19T07:42:56.039Z,100371.80
2018-12-19T07:45:23.527Z,100371.92
2018-12-19T07:47:50.958Z,100369.14
2018-12-19T07:50:18.455Z,100368.78
2018-12-19T07:52:46.162Z,100381.57
2018-12-19T07:55:13.538Z,100375.59
2018-12-19T07:57:41.014Z,100387.25
2018-12-19T08:00:08.410Z,100389.78
2018-12-19T08:02:35.794Z,100380.61
2018-12-19T08:05:03.178Z,100389.75
2018-12-19T08:07:30.570Z,100392.19
2018-12-19T08:09:57.990Z,100397.41
2018-12-19T08:12:25.403Z,100393.64
2018-12-19T08:14:54.757Z,100392.87
2018-12-19T08:17:22.146Z,100388.08
2018-12-19T08:19:49.558Z,100384.50
2018-12-19T08:22:16.955Z,100385.42
2018-12-19T08:24:44.418Z,100387.96
2018-12-19T08:27:11.822Z,100385.77
2018-12-19T08:29:39.199Z,100385.14
2018-12-19T08:32:06.666Z,100395.59
2018-12-19T08:34:34.058Z,100389.39
2018-12-19T08:37:01.440Z,100395.80
2018-12-19T08:39:29.134Z,100398.41
2018-12-19T08:41:56.814Z,100387.62
2018-12-19T08:44:24.506Z,100385.30
2018-12-19T08:46:52.047Z,100386.66
2018-12-19T08:49:19.450Z,100392.89
2018-12-19T08:51:46.906Z,100388.42
2018-12-19T08:54:14.362Z,100385.13
2018-12-19T08:56:41.813Z,100380.03
2018-12-19T08:59:09.275Z,100378.60
2018-12-19T09:01:36.670Z,100390.31
2018-12-19T09:04:04.065Z,100396.30
2018-12-19T09:06:31.541Z,100391.62
2018-12-19T09:08:59.014Z,100391.38
2018-12-19T09:11:26.563Z,100395.30
2018-12-19T09:13:53.964Z,100397.28
2018-12-19T09:16:21.366Z,100396.30
2018-12-19T09:18:48.826Z,100397.61
2018-12-19T09:21:16.286Z,100398.67
2018-12-19T09:23:43.674Z,100391.88
2018-12-19T09:26:11.057Z,100395.67
2018-12-19T09:28:38.514Z,100395.22
2018-12-19T09:31:05.902Z,100402.38
2018-12-19T09:33:33.362Z,100398.95
2018-12-19T09:36:00.834Z,100402.09
2018-12-19T09:38:28.229Z,100397.45
2018-12-19T09:40:55.615Z,100390.41
2018-12-19T09:43:23.026Z,100394.80
2018-12-19T09:45:50.442Z,100404.94
2018-12-19T09:48:18.230Z,100402.13
2018-12-19T09:50:45.630Z,100401.63
2018-12-19T09:53:13.422Z,100396.69
2018-12-19T09:55:40.967Z,100398.53
2018-12-19T09:58:08.354Z,100399.35
2018-12-19T10:00:35.808Z,100402.16
2018-12-19T10:03:03.254Z,100403.33
2018-12-19T10:05:30.758Z,100395.23
2018-12-19T10:07:58.170Z,100396.41
2018-12-19T10:10:25.566Z,100402.81
2018-12-19T10:12:52.974Z,100400.08
2018-12-19T10:15:20.366Z,100392.57
2018-12-19T10:17:47.791Z,100396.58
2018-12-19T10:20:15.250Z,100389.77
2018-12-19T10:22:42.706Z,100388.54
2018-12-19T10:25:13.685Z,100382.10
2018-12-19T10:27:41.175Z,100383.03
2018-12-19T10:30:10.815Z,100378.18
2018-12-19T10:32:39.484Z,100383.22
2018-12-19T10:35:08.485Z,100382.56
2018-12-19T10:37:36.055Z,100382.75
2018-12-19T10:40:05.341Z,100389.75
2018-12-19T10:42:32.738Z,100393.22
2018-12-19T10:45:00.158Z,100381.12
2018-12-19T10:47:27.555Z,100380.98
2018-12-19T10:49:54.979Z,100383.28
2018-12-19T10:52:22.435Z,100378.88
2018-12-19T10:54:49.890Z,100376.90
2018-12-19T10:57:17.341Z,100380.65
2018-12-19T10:59:44.806Z,100384.44
2018-12-19T11:02:12.202Z,100382.87
2018-12-19T11:04:39.603Z,100382.41
2018-12-19T11:07:06.990Z,100376.70
2018-12-19T11:09:34.382Z,100382.06
2018-12-19T11:12:01.894Z,100375.25
2018-12-19T11:14:29.402Z,100377.98
2018-12-19T11:16:57.021Z,100380.43
2018-12-19T11:19:24.459Z,100378.22
2018-12-19T11:21:51.856Z,100380.92
2018-12-19T11:24:19.249Z,100378.51
2018-12-19T11:26:46.750Z,100373.44
2018-12-19T11:29:14.136Z,100383.95
2018-12-19T11:31:41.553Z,100381.01
2018-12-19T11:34:08.965Z,100381.36
2018-12-19T11:36:36.574Z,100381.27
2018-12-19T11:39:06.752Z,100386.08
2018-12-19T11:41:38.955Z,100390.30
2018-12-19T11:44:04.141Z,100379.20
2018-12-19T11:46:31.606Z,100380.56
2018-12-19T11:48:59.067Z,100382.55
2018-12-19T11:51:26.464Z,100377.47
2018-12-19T11:53:53.853Z,100372.87
2018-12-19T11:56:21.321Z,100376.97
2018-12-19T11:58:48.715Z,100376.97
2018-12-19T12:01:16.143Z,100374.20
2018-12-19T12:03:43.518Z,100380.13
2018-12-19T12:06:10.910Z,100383.53
2018-12-19T12:08:38.290Z,100380.16
2018-12-19T12:11:05.762Z,100380.70
2018-12-19T12:13:33.225Z,100381.32
2018-12-19T12:16:00.651Z,100369.16
2018-12-19T12:18:28.135Z,100365.98
2018-12-19T12:20:55.582Z,100371.23
2018-12-19T12:23:23.048Z,100376.55
2018-12-19T12:25:50.443Z,100360.47
2018-12-19T12:28:17.869Z,100362.25
2018-12-19T12:30:45.314Z,100362.55
2018-12-19T12:33:12.719Z,100363.11
2018-12-19T12:35:40.315Z,100364.43
2018-12-19T12:38:08.208Z,100363.19
2018-12-19T12:40:35.586Z,100364.60
2018-12-19T12:43:03.010Z,100360.35
2018-12-19T12:45:30.403Z,100373.23
2018-12-19T12:47:57.824Z,100368.59
2018-12-19T12:50:25.273Z,100361.17
2018-12-19T12:52:52.843Z,100365.11
2018-12-19T12:55:20.242Z,100362.86
2018-12-19T12:57:47.718Z,100363.56
2018-12-19T13:00:15.102Z,100356.84
2018-12-19T13:02:42.567Z,100360.67
2018-12-19T13:05:10.124Z,100362.39
2018-12-19T13:07:37.582Z,100356.13
2018-12-19T13:10:07.465Z,100353.97
2018-12-19T13:12:34.855Z,100343.77
2018-12-19T13:15:02.516Z,100346.02
2018-12-19T13:17:29.902Z,100342.05
2018-12-19T13:19:57.310Z,100346.46
2018-12-19T13:22:24.707Z,100344.45
2018-12-19T13:24:52.126Z,100337.66
2018-12-19T13:27:19.606Z,100336.67
2018-12-19T13:29:47.042Z,100347.19
2018-12-19T13:32:14.438Z,100341.45
2018-12-19T13:34:41.837Z,100343.92
2018-12-19T13:37:09.315Z,100345.45
2018-12-19T13:39:36.719Z,100350.59
2018-12-19T13:42:05.812Z,100349.99
2018-12-19T13:44:33.528Z,100346.22
2018-12-19T13:47:00.988Z,100341.27
2018-12-19T13:49:28.387Z,100342.23
2018-12-19T13:51:55.797Z,100345.17
2018-12-19T13:54:23.260Z,100345.77
2018-12-19T13:56:50.647Z,100345.72
2018-12-19T13:59:18.070Z,100348.27
2018-12-19T14:01:45.481Z,100351.52
2018-12-19T14:04:12.887Z,100348.52
2018-12-19T14:06:40.286Z,100346.17
2018-12-19T14:09:07.684Z,100350.92
2018-12-19T14:11:35.170Z,100348.29
2018-12-19T14:14:02.597Z,100351.81
2018-12-19T14:16:30.059Z,100353.53
2018-12-19T14:18:57.519Z,100351.22
2018-12-19T14:21:24.905Z,100362.03
2018-12-19T14:23:52.345Z,100368.17
2018-12-19T14:26:19.790Z,100366.43
2018-12-19T14:28:47.249Z,100364.12
2018-12-19T14:31:14.647Z,100369.55
2018-12-19T14:33:42.031Z,100376.48
2018-12-19T14:36:09.427Z,100375.87
2018-12-19T14:38:36.823Z,100382.27
2018-12-19T14:41:04.328Z,100389.09
2018-12-19T14:43:31.710Z,100386.93
2018-12-19T14:45:59.629Z,100391.11
2018-12-19T14:48:27.115Z,100390.50
2018-12-19T14:50:54.610Z,100388.31
2018-12-19T14:53:21.999Z,100391.89
2018-12-19T14:55:49.402Z,100390.56
2018-12-19T14:58:16.836Z,100390.88
2018-12-19T15:00:44.229Z,100390.15
2018-12-19T15:03:11.613Z,100390.23
2018-12-19T15:05:39.005Z,100387.58
2018-12-19T15:08:06.450Z,100380.45
2018-12-19T15:10:33.843Z,100380.69
2018-12-19T15:13:01.267Z,100381.28
2018-12-19T15:15:28.722Z,100387.41
2018-12-19T15:17:56.188Z,100397.99
2018-12-19T15:20:23.630Z,100393.34
2018-12-19T15:22:51.017Z,100396.68
2018-12-19T15:25:18.447Z,100394.59
2018-12-19T15:27:45.914Z,100398.37
2018-12-19T15:30:13.364Z,100397.59
2018-12-19T15:32:40.834Z,100408.67
2018-12-19T15:35:08.275Z,100400.83
2018-12-19T15:37:35.735Z,100400.96
2018-12-19T15:40:03.347Z,100402.17
2018-12-19T15:42:32.682Z,100399.14
2018-12-19T15:45:00.151Z,100398.36
2018-12-19T15:47:27.550Z,100393.58
2018-12-19T15:49:54.962Z,100394.02
2018-12-19T15:52:22.528Z,100392.43
2018-12-19T15:54:49.906Z,100392.54
2018-12-19T15:57:17.294Z,100388.53
2018-12-19T15:59:44.783Z,100386.57
2018-12-19T16:02:12.247Z,100384.22
2018-12-19T16:04:39.709Z,100389.10
2018-12-19T16:07:07.106Z,100387.11
2018-12-19T16:09:34.486Z,100390.45
2018-12-19T16:12:01.981Z,100382.25
2018-12-19T16:14:29.360Z,100379.64
2018-12-19T16:16:56.795Z,100382.17
2018-12-19T16:19:24.235Z,100388.82
2018-12-19T16:21:51.622Z,100389.63
2018-12-19T16:24:19.006Z,100385.44
2018-12-19T16:26:46.414Z,100389.92
2018-12-19T16:29:13.861Z,100382.79
2018-12-19T16:31:41.258Z,100383.72
2018-12-19T16:34:08.656Z,100377.50
2018-12-19T16:36:36.050Z,100382.04
2018-12-19T16:39:06.349Z,100377.24
2018-12-19T16:41:33.824Z,100372.84
2018-12-19T16:44:01.377Z,100378.50
2018-12-19T16:46:28.825Z,100372.70
2018-12-19T16:48:56.280Z,100367.13
2018-12-19T16:51:23.742Z,100371.08
2018-12-19T16:53:51.142Z,100367.07
2018-12-19T16:56:18.649Z,100358.77
2018-12-19T16:58:46.058Z,100361.61
2018-12-19T17:01:13.769Z,100362.48
2018-12-19T17:03:41.166Z,100360.39
2018-12-19T17:06:08.552Z,100355.36
2018-12-19T17:08:35.956Z,100352.49
2018-12-19T17:11:03.397Z,100358.73
2018-12-19T17:13:30.789Z,100346.56
2018-12-19T17:15:58.206Z,100349.73
2018-12-19T17:18:25.610Z,100358.63
2018-12-19T17:20:53.007Z,100356.96
2018-12-19T17:23:20.407Z,100364.31
2018-12-19T17:25:47.936Z,100363.31
2018-12-19T17:28:15.390Z,100364.82
2018-12-19T17:30:42.783Z,100360.34
2018-12-19T17:33:10.267Z,100364.78
2018-12-19T17:35:37.658Z,100367.81
2018-12-19T17:38:05.062Z,100367.55
2018-12-19T17:40:32.450Z,100373.53
2018-12-19T17:42:59.926Z,100376.16
2018-12-19T17:45:27.382Z,100377.72
2018-12-19T17:47:54.840Z,100377.55
2018-12-19T17:50:22.298Z,100379.64
2018-12-19T17:52:49.709Z,100381.36
2018-12-19T17:55:17.169Z,100386.19
2018-12-19T17:57:44.583Z,100385.17
2018-12-19T18:00:12.155Z,100386.84
2018-12-19T18:02:39.580Z,100395.45
2018-12-19T18:05:07.142Z,100393.23
2018-12-19T18:07:34.594Z,100396.12
2018-12-19T18:10:02.088Z,100390.95
2018-12-19T18:12:29.509Z,100394.98
2018-12-19T18:14:56.886Z,100393.42
2018-12-19T18:17:24.435Z,100393.84
2018-12-19T18:19:51.883Z,100391.08
2018-12-19T18:22:19.274Z,100388.00
2018-12-19T18:24:46.672Z,100388.25
2018-12-19T18:27:14.070Z,100385.00
2018-12-19T18:29:41.522Z,100391.56
2018-12-19T18:32:08.963Z,100391.36
2018-12-19T18:34:36.356Z,100385.02
2018-12-19T18:37:03.774Z,100382.05
2018-12-19T18:39:31.235Z,100380.64
2018-12-19T18:41:58.627Z,100382.18
2018-12-19T18:44:26.048Z,100376.97
2018-12-19T18:46:53.494Z,100382.65
2018-12-19T18:49:20.959Z,100380.91
2018-12-19T18:51:48.343Z,100375.30
2018-12-19T18:54:15.742Z,100380.63
2018-12-19T18:56:43.231Z,100381.48
2018-12-19T18:59:10.637Z,100377.45
2018-12-19T19:01:38.186Z,100370.92
2018-12-19T19:04:05.702Z,100373.52
2018-12-19T19:06:33.185Z,100368.89
2018-12-19T19:09:00.724Z,100368.16
2018-12-19T19:11:28.204Z,100372.58
2018-12-19T19:13:55.635Z,100374.66
2018-12-19T19:16:23.191Z,100377.20
2018-12-19T19:18:50.637Z,100374.83
2018-12-19T19:21:18.019Z,100369.64
2018-12-19T19:23:45.425Z,100379.59
2018-12-19T19:26:12.922Z,100370.80
2018-12-19T19:28:40.306Z,100373.78
2018-12-19T19:31:07.707Z,100372.31
2018-12-19T19:33:35.189Z,100372.44
2018-12-19T19:36:02.657Z,100370.34
2018-12-19T19:38:30.054Z,100372.16
2018-12-19T19:40:57.566Z,100366.45
2018-12-19T19:43:26.680Z,100373.59
2018-12-19T19:45:54.411Z,100373.59
2018-12-19T19:48:21.818Z,100371.38
2018-12-19T19:50:49.226Z,100370.19
2018-12-19T19:53:16.627Z,100366.13
2018-12-19T19:55:44.039Z,100373.41
2018-12-19T19:58:11.493Z,100370.39
2018-12-19T20:00:38.951Z,100370.20
2018-12-19T20:03:06.410Z,100370.47
2018-12-19T20:05:33.877Z,100375.92
2018-12-19T20:08:01.322Z,100380.63
2018-12-19T20:10:28.708Z,100383.34
2018-12-19T20:12:56.130Z,100387.17
2018-12-19T20:15:23.533Z,100389.41
2018-12-19T20:17:50.915Z,100387.74
2018-12-19T20:20:18.374Z,100390.26
2018-12-19T20:22:45.782Z,100388.26
2018-12-19T20:25:13.162Z,100389.80
2018-12-19T20:27:40.568Z,100395.45
2018-12-19T20:30:09.358Z,100400.95
2018-12-19T20:32:36.816Z,100393.98
2018-12-19T20:35:04.606Z,100390.36
2018-12-19T20:37:32.030Z,100392.42
2018-12-19T20:39:59.495Z,100386.11
2018-12-19T20:42:26.882Z,100383.13
2018-12-19T20:44:54.270Z,100383.11
2018-12-19T20:47:21.746Z,100378.25
2018-12-19T20:49:49.215Z,100375.54
2018-12-19T20:52:16.676Z,100372.72
2018-12-19T20:54:44.179Z,100371.11
2018-12-19T20:57:11.697Z,100368.30
2018-12-19T20:59:39.348Z,100372.74
2018-12-19T21:02:06.942Z,100374.05
2018-12-19T21:04:34.342Z,100370.88
2018-12-19T21:07:01.722Z,100380.46
2018-12-19T21:09:29.177Z,100374.23
2018-12-19T21:11:56.611Z,100378.66
2018-12-19T21:14:24.010Z,100376.05
2018-12-19T21:16:57.096Z,100385.48
2018-12-19T21:19:24.531Z,100383.59
2018-12-19T21:21:51.938Z,100388.63
2018-12-19T21:24:19.355Z,100386.63
2018-12-19T21:26:46.753Z,100381.48
2018-12-19T21:29:14.138Z,100382.84
2018-12-19T21:31:41.614Z,100383.06
2018-12-19T21:34:09.066Z,100379.38
2018-12-19T21:36:36.528Z,100386.59
2018-12-19T21:39:06.820Z,100379.59
2018-12-19T21:41:34.215Z,100370.48
2018-12-19T21:44:01.657Z,100374.41
2018-12-19T21:46:29.156Z,100376.94
2018-12-19T21:48:56.641Z,100373.25
2018-12-19T21:51:24.134Z,100376.94
2018-12-19T21:53:51.642Z,100368.07
2018-12-19T21:56:19.171Z,100374.78
2018-12-19T21:58:46.627Z,100377.63
2018-12-19T22:01:14.023Z,100372.03
2018-12-19T22:03:41.401Z,100369.69
2018-12-19T22:06:08.880Z,100375.05
2018-12-19T22:08:36.389Z,100369.55
2018-12-19T22:11:05.438Z,100366.88
2018-12-19T22:13:32.883Z,100368.44
2018-12-19T22:16:00.349Z,100375.16
2018-12-19T22:18:33.321Z,100374.86
2018-12-19T22:21:00.845Z,100372.87
2018-12-19T22:23:28.369Z,100377.00
2018-12-19T22:25:55.942Z,100378.93
2018-12-19T22:28:23.489Z,100380.85
2018-12-19T22:30:50.955Z,100380.45
2018-12-19T22:33:18.640Z,100380.45
2018-12-19T22:35:46.100Z,100377.04
2018-12-19T22:38:13.494Z,100380.22
2018-12-19T22:40:41.112Z,100376.88
2018-12-19T22:43:08.542Z,100376.34
2018-12-19T22:45:36.007Z,100376.42
2018-12-19T22:48:03.467Z,100380.25
2018-12-19T22:50:30.873Z,100381.19
2018-12-19T22:52:59.780Z,100380.78
2018-12-19T22:55:27.530Z,100374.00
2018-12-19T22:57:55.066Z,100373.17
2018-12-19T23:00:22.474Z,100373.05
2018-12-19T23:02:56.005Z,100370.59
2018-12-19T23:05:29.255Z,100376.69
2018-12-19T23:08:03.847Z,100373.39
2018-12-19T23:10:31.505Z,100376.27
2018-12-19T23:12:58.991Z,100371.91
2018-12-19T23:15:26.444Z,100366.17
2018-12-19T23:17:55.816Z,100360.30
2018-12-19T23:20:23.393Z,100363.48
2018-12-19T23:22:50.906Z,100373.85
2018-12-19T23:25:18.717Z,100375.92
2018-12-19T23:27:46.190Z,100378.38
2018-12-19T23:30:13.612Z,100376.95
2018-12-19T23:32:41.087Z,100370.13
2018-12-19T23:35:08.619Z,100356.32
2018-12-19T23:37:36.061Z,100361.33
2018-12-19T23:40:04.307Z,100362.58
2018-12-19T23:42:31.746Z,100363.58
2018-12-19T23:44:59.186Z,100362.33
2018-12-19T23:47:26.725Z,100356.08
2018-12-19T23:49:54.195Z,100359.14
2018-12-19T23:52:21.779Z,100356.68
2018-12-19T23:54:49.342Z,100356.73
2018-12-19T23:57:16.831Z,100355.48
2018-12-19T23:59:44.274Z,100352.65
